createdAt,value
2022-12-04T08:46:40.955Z,47.69
2022-12-04T08:56:58.689Z,51.72
2022-12-04T09:02:08.570Z,48.17
2022-12-04T09:07:18.938Z,53.81
2022-12-04T09:12:28.831Z,45.27
2022-12-04T09:17:38.723Z,46.08
2022-12-04T09:22:48.593Z,46.72
2022-12-04T09:27:58.978Z,46.56
2022-12-04T09:33:08.868Z,45.6
2022-12-04T09:38:18.744Z,45.76
2022-12-04T09:43:28.631Z,57.04
2022-12-04T09:48:38.513Z,48.01
2022-12-04T09:53:48.898Z,45.43
2022-12-04T09:58:58.776Z,46.72
2022-12-04T10:04:08.677Z,44.95
2022-12-04T10:09:18.550Z,46.88
2022-12-04T10:14:28.924Z,56.39
2022-12-04T10:19:38.804Z,45.43
2022-12-04T10:24:48.684Z,45.27
2022-12-04T10:29:58.583Z,48.5
2022-12-04T10:35:08.447Z,47.21
2022-12-04T10:40:18.332Z,46.08
2022-12-04T10:45:28.229Z,44.47
2022-12-04T10:50:38.596Z,44.63
2022-12-04T10:55:48.500Z,45.27
2022-12-04T11:00:58.365Z,45.27
2022-12-04T11:06:08.754Z,44.63
2022-12-04T11:11:18.637Z,48.82
2022-12-04T11:16:28.535Z,45.11
2022-12-04T11:21:38.414Z,46.08
2022-12-04T11:26:48.293Z,46.72
2022-12-04T11:31:58.165Z,45.27
2022-12-04T11:37:08.563Z,47.21
2022-12-04T11:42:18.437Z,47.05
2022-12-04T11:47:28.330Z,45.76
2022-12-04T11:52:38.708Z,46.08
2022-12-04T11:57:48.599Z,46.24
2022-12-04T12:02:58.480Z,45.27
2022-12-04T12:08:08.357Z,46.08
2022-12-04T12:13:18.223Z,45.43
2022-12-04T12:18:28.612Z,44.79
2022-12-04T12:23:38.489Z,44.95
2022-12-04T12:28:48.375Z,44.47
2022-12-04T12:33:58.251Z,45.76
2022-12-04T12:39:08.632Z,45.11
2022-12-04T12:44:18.514Z,44.95
2022-12-04T12:49:28.404Z,45.43
2022-12-04T12:54:38.769Z,44.79
2022-12-04T12:59:48.652Z,45.27
2022-12-04T13:04:58.550Z,44.79
2022-12-04T13:10:08.434Z,44.79
2022-12-04T13:15:18.299Z,45.11
2022-12-04T13:20:28.186Z,44.79
2022-12-04T13:25:38.564Z,45.11
2022-12-04T13:30:48.440Z,45.43
2022-12-04T13:35:58.331Z,32.06
2022-12-04T13:41:08.709Z,43.18
2022-12-04T13:46:18.586Z,43.02
2022-12-04T13:51:28.460Z,38.18
2022-12-04T13:56:38.339Z,39.79
2022-12-04T14:01:48.229Z,31.58
2022-12-04T14:06:58.609Z,31.74
2022-12-04T14:12:08.491Z,31.25
2022-12-04T14:17:18.382Z,31.9
2022-12-04T14:22:28.264Z,32.06
2022-12-04T14:27:38.637Z,33.03
2022-12-04T14:32:48.530Z,32.54
2022-12-04T14:37:58.406Z,31.74
2022-12-04T14:43:08.292Z,32.87
2022-12-04T14:48:18.169Z,31.74
2022-12-04T14:53:28.042Z,30.13
2022-12-04T14:58:37.917Z,33.67
2022-12-04T15:03:47.809Z,31.74
2022-12-04T15:08:58.197Z,32.38
2022-12-04T15:14:08.713Z,30.61
2022-12-04T15:19:19.292Z,53.49
2022-12-04T15:24:29.887Z,31.42
2022-12-04T15:29:40.399Z,30.45
2022-12-04T15:34:50.778Z,30.45
2022-12-04T15:40:01.167Z,39.15
2022-12-04T15:45:11.550Z,30.77
2022-12-04T15:50:22.058Z,31.25
2022-12-04T15:55:32.653Z,30.45
2022-12-04T16:00:43.233Z,30.45
2022-12-04T16:05:53.769Z,30.77
2022-12-04T16:11:04.135Z,31.58
2022-12-04T16:16:14.521Z,30.77
2022-12-04T16:21:24.914Z,30.45
2022-12-04T16:26:35.284Z,29.97
2022-12-04T16:31:45.677Z,31.58
2022-12-04T16:36:56.193Z,30.61
2022-12-04T16:42:06.796Z,30.45
2022-12-04T16:47:17.386Z,30.61
2022-12-04T16:52:27.876Z,30.77
2022-12-04T16:57:38.271Z,33.83
2022-12-04T17:02:48.644Z,31.25
2022-12-04T17:07:59.025Z,31.25
2022-12-04T17:13:09.416Z,30.29
2022-12-04T17:18:19.805Z,30.77
2022-12-04T17:23:30.179Z,31.25
2022-12-04T17:28:40.556Z,30.93
2022-12-04T17:33:50.947Z,31.58
2022-12-04T17:39:01.314Z,30.45
2022-12-04T17:44:11.819Z,30.29
2022-12-04T17:49:22.410Z,30.45
2022-12-04T17:54:33.009Z,30.77
2022-12-04T17:59:43.516Z,30.45
2022-12-04T18:04:53.904Z,30.13
2022-12-04T18:10:04.281Z,35.93
2022-12-04T18:15:14.669Z,32.54
2022-12-04T18:20:25.036Z,30.77
2022-12-04T18:25:35.428Z,31.25
2022-12-04T18:30:45.820Z,30.61
2022-12-04T18:35:56.188Z,30.29
2022-12-04T18:41:06.571Z,30.77
2022-12-04T18:46:16.966Z,32.38
2022-12-04T18:51:27.336Z,31.25
2022-12-04T18:56:37.710Z,33.83
2022-12-04T19:01:48.092Z,31.58
2022-12-04T19:06:58.480Z,31.58
2022-12-04T19:12:08.855Z,31.42
2022-12-04T19:17:19.258Z,30.93
2022-12-04T19:22:29.643Z,32.06
2022-12-04T19:32:50.404Z,32.06
2022-12-04T19:38:00.779Z,31.74
2022-12-04T19:43:11.159Z,33.67
2022-12-04T19:48:21.540Z,32.38
2022-12-04T19:53:31.934Z,31.58
2022-12-04T19:58:42.321Z,32.54
2022-12-04T20:03:52.690Z,32.54
2022-12-04T20:09:03.000Z,31.42
2022-12-04T20:14:13.470Z,32.87
2022-12-04T20:19:23.846Z,33.35
2022-12-04T20:24:34.219Z,32.38
2022-12-04T20:29:44.619Z,33.83
2022-12-04T20:34:54.995Z,31.74
2022-12-04T20:40:05.379Z,33.67
2022-12-04T20:45:15.762Z,33.83
